Forside
METAR-TAF:

METAR-TAF

Lufthavne :

Black River Falls, Wisconsin, USA

Breddekreds: 44-15-03N, længdekreds: 090-51-19W, højde: 255 m

Aktuelle vejr

Denne rapport blev lavet for 18 minutter siden, kl. 12:35 UTC
Vind 3 kt fra østsydøst
Temperatur 0°C
Fugtighed 93%
Tryk 1020 hPa
Sigt: 2.4 km
Spredte skyer i en højde af 1400 ft
Brudte skyer i en højde af 2200 ft
Overskyet i en højde af 2900 ft
let sne

METAR: KBCK 241235Z AUTO 11003KT 1 1/2SM -SN SCT014 BKN022 OVC029 00/M01 A3011 RMK AO2 T00011009

Tid: 06:53 (12:53 UTC)


TAF: fraværende

Vejrobservationer og prognoser fra mere end 4000 lufthavne (METAR og TAF).

De gule og røde prikker repræsenterer de meteorologiske stationer.

Flyt musen over at se navnet på stationen.

Så klik over at se vejr observationer og prognoser.

At skifte det kort: Klik på de grønne knapper med et sort kors for at zoome ind; på den grønne knap med en bindestreg for at zoome ud; eller på de grønne pile for tilstødende kort.


METAR-TAF: